sensor_id;sensor_type;location;lat;lon;timestamp;P1;durP1;ratioP1;P2;durP2;ratioP2
78141;SDS011;67393;52.620;13.482;2023-02-22T05:07:47;19.10;;;4.30;;
78141;SDS011;67393;52.620;13.482;2023-02-22T05:10:14;23.23;;;5.45;;
78141;SDS011;67393;52.620;13.482;2023-02-22T05:12:41;25.45;;;4.72;;
78141;SDS011;67393;52.620;13.482;2023-02-22T05:15:07;12.57;;;4.72;;
78141;SDS011;67393;52.620;13.482;2023-02-22T05:17:34;22.42;;;5.65;;
78141;SDS011;67393;52.620;13.482;2023-02-22T05:20:01;23.02;;;5.75;;
78141;SDS011;67393;52.620;13.482;2023-02-22T05:24:55;19.98;;;5.63;;
78141;SDS011;67393;52.620;13.482;2023-02-22T05:27:21;20.33;;;5.38;;
78141;SDS011;67393;52.620;13.482;2023-02-22T05:29:48;19.67;;;4.55;;
78141;SDS011;67393;52.620;13.482;2023-02-22T05:32:14;19.77;;;6.13;;
78141;SDS011;67393;52.620;13.482;2023-02-22T05:34:41;22.35;;;6.20;;
78141;SDS011;67393;52.620;13.482;2023-02-22T05:37:07;20.40;;;4.05;;
78141;SDS011;67393;52.620;13.482;2023-02-22T05:39:33;23.58;;;4.72;;
78141;SDS011;67393;52.620;13.482;2023-02-22T05:41:59;22.25;;;5.55;;
78141;SDS011;67393;52.620;13.482;2023-02-22T05:44:26;24.85;;;5.10;;
78141;SDS011;67393;52.620;13.482;2023-02-22T05:46:52;23.02;;;4.95;;
78141;SDS011;67393;52.620;13.482;2023-02-22T05:49:19;31.48;;;5.35;;
78141;SDS011;67393;52.620;13.482;2023-02-22T05:51:45;22.33;;;4.90;;
78141;SDS011;67393;52.620;13.482;2023-02-22T05:54:11;17.08;;;4.25;;
78141;SDS011;67393;52.620;13.482;2023-02-22T05:56:38;15.73;;;5.28;;
78141;SDS011;67393;52.620;13.482;2023-02-22T05:59:04;18.40;;;5.18;;
78141;SDS011;67393;52.620;13.482;2023-02-22T06:01:30;18.92;;;5.43;;
78141;SDS011;67393;52.620;13.482;2023-02-22T06:03:57;20.45;;;5.38;;
78141;SDS011;67393;52.620;13.482;2023-02-22T06:06:23;20.08;;;4.43;;
78141;SDS011;67393;52.620;13.482;2023-02-22T06:08:49;14.10;;;4.40;;
78141;SDS011;67393;52.620;13.482;2023-02-22T06:11:16;26.83;;;6.13;;
78141;SDS011;67393;52.620;13.482;2023-02-22T06:13:47;27.35;;;5.25;;
78141;SDS011;67393;52.620;13.482;2023-02-22T06:16:14;17.92;;;4.57;;
78141;SDS011;67393;52.620;13.482;2023-02-22T06:18:40;21.30;;;4.70;;
78141;SDS011;67393;52.620;13.482;2023-02-22T06:21:08;16.02;;;4.97;;
78141;SDS011;67393;52.620;13.482;2023-02-22T06:23:34;25.13;;;5.97;;
78141;SDS011;67393;52.620;13.482;2023-02-22T06:26:01;21.58;;;5.65;;
78141;SDS011;67393;52.620;13.482;2023-02-22T06:28:27;21.40;;;4.50;;
78141;SDS011;67393;52.620;13.482;2023-02-22T06:30:53;29.77;;;6.03;;
78141;SDS011;67393;52.620;13.482;2023-02-22T06:33:19;22.05;;;4.70;;
78141;SDS011;67393;52.620;13.482;2023-02-22T06:35:46;23.95;;;5.80;;
78141;SDS011;67393;52.620;13.482;2023-02-22T06:38:19;18.35;;;5.65;;
78141;SDS011;67393;52.620;13.482;2023-02-22T06:40:46;22.50;;;5.05;;
78141;SDS011;67393;52.620;13.482;2023-02-22T06:43:12;22.63;;;6.00;;
78141;SDS011;67393;52.620;13.482;2023-02-22T06:45:38;14.38;;;4.97;;
78141;SDS011;67393;52.620;13.482;2023-02-22T06:48:05;24.73;;;5.75;;
78141;SDS011;67393;52.620;13.482;2023-02-22T06:50:31;27.17;;;6.53;;
78141;SDS011;67393;52.620;13.482;2023-02-22T06:53:00;24.02;;;6.32;;
78141;SDS011;67393;52.620;13.482;2023-02-22T06:55:28;29.65;;;7.25;;
78141;SDS011;67393;52.620;13.482;2023-02-22T06:57:57;32.00;;;7.78;;
78141;SDS011;67393;52.620;13.482;2023-02-22T07:00:24;26.13;;;6.63;;
78141;SDS011;67393;52.620;13.482;2023-02-22T07:02:51;20.15;;;5.95;;
78141;SDS011;67393;52.620;13.482;2023-02-22T07:05:20;30.83;;;7.00;;
78141;SDS011;67393;52.620;13.482;2023-02-22T07:07:48;22.08;;;5.80;;
78141;SDS011;67393;52.620;13.482;2023-02-22T07:10:17;21.35;;;6.47;;
78141;SDS011;67393;52.620;13.482;2023-02-22T07:12:46;24.55;;;5.20;;
78141;SDS011;67393;52.620;13.482;2023-02-22T07:15:12;28.02;;;5.38;;
78141;SDS011;67393;52.620;13.482;2023-02-22T07:17:39;17.42;;;5.63;;
78141;SDS011;67393;52.620;13.482;2023-02-22T07:20:06;24.08;;;6.65;;
78141;SDS011;67393;52.620;13.482;2023-02-22T07:22:33;26.08;;;6.22;;
78141;SDS011;67393;52.620;13.482;2023-02-22T07:24:59;23.13;;;6.38;;
78141;SDS011;67393;52.620;13.482;2023-02-22T07:27:25;24.23;;;6.45;;
78141;SDS011;67393;52.620;13.482;2023-02-22T07:29:52;20.48;;;4.82;;
78141;SDS011;67393;52.620;13.482;2023-02-22T07:32:18;25.38;;;5.55;;
78141;SDS011;67393;52.620;13.482;2023-02-22T07:34:44;24.45;;;5.85;;
78141;SDS011;67393;52.620;13.482;2023-02-22T07:37:11;34.25;;;7.47;;
78141;SDS011;67393;52.620;13.482;2023-02-22T07:39:37;28.20;;;7.50;;
78141;SDS011;67393;52.620;13.482;2023-02-22T07:42:03;24.00;;;6.32;;
78141;SDS011;67393;52.620;13.482;2023-02-22T07:44:30;19.33;;;5.60;;
78141;SDS011;67393;52.620;13.482;2023-02-22T07:46:56;25.25;;;6.85;;
78141;SDS011;67393;52.620;13.482;2023-02-22T07:49:22;22.08;;;6.35;;
78141;SDS011;67393;52.620;13.482;2023-02-22T07:51:48;28.30;;;6.45;;
78141;SDS011;67393;52.620;13.482;2023-02-22T07:54:15;22.92;;;6.75;;
78141;SDS011;67393;52.620;13.482;2023-02-22T07:56:45;30.67;;;6.60;;
78141;SDS011;67393;52.620;13.482;2023-02-22T07:59:13;20.48;;;5.47;;
78141;SDS011;67393;52.620;13.482;2023-02-22T08:01:40;27.30;;;6.38;;
78141;SDS011;67393;52.620;13.482;2023-02-22T08:04:07;20.40;;;6.03;;
78141;SDS011;67393;52.620;13.482;2023-02-22T08:06:33;26.30;;;6.15;;
78141;SDS011;67393;52.620;13.482;2023-02-22T08:08:59;28.30;;;5.72;;
78141;SDS011;67393;52.620;13.482;2023-02-22T08:11:26;25.52;;;6.35;;
78141;SDS011;67393;52.620;13.482;2023-02-22T08:13:52;29.15;;;7.53;;
78141;SDS011;67393;52.620;13.482;2023-02-22T08:16:18;28.67;;;7.05;;
78141;SDS011;67393;52.620;13.482;2023-02-22T08:18:45;29.17;;;6.45;;
78141;SDS011;67393;52.620;13.482;2023-02-22T08:21:11;23.10;;;6.25;;
78141;SDS011;67393;52.620;13.482;2023-02-22T08:23:37;17.40;;;6.03;;
78141;SDS011;67393;52.620;13.482;2023-02-22T08:26:07;39.25;;;6.55;;
78141;SDS011;67393;52.620;13.482;2023-02-22T08:28:35;25.42;;;6.20;;
78141;SDS011;67393;52.620;13.482;2023-02-22T08:31:01;34.72;;;6.00;;
78141;SDS011;67393;52.620;13.482;2023-02-22T08:33:28;26.05;;;6.38;;
78141;SDS011;67393;52.620;13.482;2023-02-22T08:35:54;26.00;;;6.57;;
78141;SDS011;67393;52.620;13.482;2023-02-22T08:38:25;27.00;;;6.10;;
78141;SDS011;67393;52.620;13.482;2023-02-22T08:40:53;28.25;;;6.18;;
78141;SDS011;67393;52.620;13.482;2023-02-22T08:43:20;27.35;;;6.90;;
78141;SDS011;67393;52.620;13.482;2023-02-22T08:45:47;23.23;;;6.57;;
78141;SDS011;67393;52.620;13.482;2023-02-22T08:48:14;33.85;;;6.82;;
78141;SDS011;67393;52.620;13.482;2023-02-22T08:53:08;28.38;;;6.90;;
78141;SDS011;67393;52.620;13.482;2023-02-22T08:55:36;19.10;;;6.45;;
78141;SDS011;67393;52.620;13.482;2023-02-22T08:58:04;29.00;;;5.85;;
78141;SDS011;67393;52.620;13.482;2023-02-22T09:00:32;22.52;;;4.78;;
78141;SDS011;67393;52.620;13.482;2023-02-22T09:02:59;23.73;;;5.72;;
78141;SDS011;67393;52.620;13.482;2023-02-22T09:05:26;22.08;;;5.85;;
78141;SDS011;67393;52.620;13.482;2023-02-22T09:07:56;19.60;;;5.30;;
78141;SDS011;67393;52.620;13.482;2023-02-22T09:10:24;23.42;;;5.88;;
78141;SDS011;67393;52.620;13.482;2023-02-22T09:12:52;29.70;;;5.55;;
78141;SDS011;67393;52.620;13.482;2023-02-22T09:17:46;16.77;;;4.30;;
78141;SDS011;67393;52.620;13.482;2023-02-22T09:20:15;21.50;;;6.20;;
78141;SDS011;67393;52.620;13.482;2023-02-22T09:22:43;28.75;;;6.60;;
78141;SDS011;67393;52.620;13.482;2023-02-22T09:25:10;29.35;;;6.60;;
78141;SDS011;67393;52.620;13.482;2023-02-22T09:27:42;23.30;;;7.45;;
78141;SDS011;67393;52.620;13.482;2023-02-22T09:30:16;22.80;;;5.45;;
78141;SDS011;67393;52.620;13.482;2023-02-22T09:32:44;27.88;;;7.47;;
78141;SDS011;67393;52.620;13.482;2023-02-22T09:35:11;25.60;;;7.18;;
78141;SDS011;67393;52.620;13.482;2023-02-22T09:37:37;23.92;;;5.85;;
78141;SDS011;67393;52.620;13.482;2023-02-22T09:40:03;25.75;;;6.05;;
78141;SDS011;67393;52.620;13.482;2023-02-22T09:42:32;23.45;;;6.35;;
78141;SDS011;67393;52.620;13.482;2023-02-22T09:47:46;27.80;;;6.05;;
78141;SDS011;67393;52.620;13.482;2023-02-22T09:50:20;27.83;;;6.65;;
78141;SDS011;67393;52.620;13.482;2023-02-22T09:55:46;22.02;;;5.78;;
78141;SDS011;67393;52.620;13.482;2023-02-22T09:58:30;31.10;;;6.75;;
78141;SDS011;67393;52.620;13.482;2023-02-22T10:01:19;24.83;;;4.63;;
78141;SDS011;67393;52.620;13.482;2023-02-22T10:06:18;19.80;;;5.20;;
78141;SDS011;67393;52.620;13.482;2023-02-22T10:08:47;31.23;;;5.40;;
78141;SDS011;67393;52.620;13.482;2023-02-22T10:11:59;23.05;;;5.75;;
78141;SDS011;67393;52.620;13.482;2023-02-22T10:19:53;22.33;;;5.10;;
78141;SDS011;67393;52.620;13.482;2023-02-22T10:22:44;23.92;;;4.60;;
78141;SDS011;67393;52.620;13.482;2023-02-22T10:25:29;22.42;;;5.10;;
78141;SDS011;67393;52.620;13.482;2023-02-22T10:30:31;20.70;;;4.35;;
78141;SDS011;67393;52.620;13.482;2023-02-22T10:33:05;22.83;;;5.03;;
78141;SDS011;67393;52.620;13.482;2023-02-22T10:35:37;18.23;;;4.32;;
78141;SDS011;67393;52.620;13.482;2023-02-22T10:38:16;14.30;;;4.45;;
78141;SDS011;67393;52.620;13.482;2023-02-22T10:40:49;15.93;;;3.90;;
78141;SDS011;67393;52.620;13.482;2023-02-22T10:43:20;19.20;;;4.05;;
78141;SDS011;67393;52.620;13.482;2023-02-22T10:45:47;16.98;;;4.40;;
78141;SDS011;67393;52.620;13.482;2023-02-22T10:48:18;16.85;;;3.95;;
78141;SDS011;67393;52.620;13.482;2023-02-22T10:50:46;15.90;;;3.80;;
78141;SDS011;67393;52.620;13.482;2023-02-22T10:53:13;21.60;;;3.58;;
78141;SDS011;67393;52.620;13.482;2023-02-22T11:03:58;20.48;;;3.45;;
78141;SDS011;67393;52.620;13.482;2023-02-22T11:06:27;22.80;;;3.72;;
78141;SDS011;67393;52.620;13.482;2023-02-22T11:09:07;14.38;;;3.38;;
78141;SDS011;67393;52.620;13.482;2023-02-22T11:11:36;17.02;;;3.88;;
78141;SDS011;67393;52.620;13.482;2023-02-22T11:14:04;11.52;;;3.03;;
78141;SDS011;67393;52.620;13.482;2023-02-22T11:16:33;20.27;;;4.35;;
78141;SDS011;67393;52.620;13.482;2023-02-22T11:19:06;14.18;;;3.67;;
78141;SDS011;67393;52.620;13.482;2023-02-22T11:21:35;20.63;;;4.50;;
78141;SDS011;67393;52.620;13.482;2023-02-22T11:24:03;13.15;;;3.20;;
78141;SDS011;67393;52.620;13.482;2023-02-22T11:26:36;23.92;;;3.88;;
78141;SDS011;67393;52.620;13.482;2023-02-22T11:29:18;21.38;;;3.90;;
78141;SDS011;67393;52.620;13.482;2023-02-22T11:31:47;13.48;;;2.65;;
78141;SDS011;67393;52.620;13.482;2023-02-22T11:36:52;27.08;;;3.72;;
78141;SDS011;67393;52.620;13.482;2023-02-22T11:39:31;9.43;;;3.00;;
78141;SDS011;67393;52.620;13.482;2023-02-22T11:41:57;17.73;;;4.68;;
78141;SDS011;67393;52.620;13.482;2023-02-22T11:44:45;17.15;;;3.55;;
78141;SDS011;67393;52.620;13.482;2023-02-22T11:47:11;12.40;;;3.35;;
78141;SDS011;67393;52.620;13.482;2023-02-22T11:49:38;14.40;;;3.53;;
78141;SDS011;67393;52.620;13.482;2023-02-22T11:52:24;12.68;;;3.40;;
78141;SDS011;67393;52.620;13.482;2023-02-22T11:55:00;21.13;;;3.70;;
78141;SDS011;67393;52.620;13.482;2023-02-22T12:00:53;19.45;;;3.55;;
78141;SDS011;67393;52.620;13.482;2023-02-22T12:09:02;15.38;;;4.20;;
78141;SDS011;67393;52.620;13.482;2023-02-22T12:11:49;11.00;;;2.50;;
78141;SDS011;67393;52.620;13.482;2023-02-22T12:14:53;9.75;;;2.97;;
78141;SDS011;67393;52.620;13.482;2023-02-22T12:20:38;17.05;;;3.15;;
78141;SDS011;67393;52.620;13.482;2023-02-22T12:23:21;18.17;;;3.55;;
78141;SDS011;67393;52.620;13.482;2023-02-22T12:29:45;16.42;;;3.08;;
78141;SDS011;67393;52.620;13.482;2023-02-22T12:32:06;14.57;;;2.20;;
78141;SDS011;67393;52.620;13.482;2023-02-22T12:34:44;15.52;;;3.65;;
78141;SDS011;67393;52.620;13.482;2023-02-22T12:37:15;11.65;;;3.03;;
78141;SDS011;67393;52.620;13.482;2023-02-22T12:42:59;17.40;;;3.60;;
78141;SDS011;67393;52.620;13.482;2023-02-22T12:45:55;18.52;;;4.38;;
78141;SDS011;67393;52.620;13.482;2023-02-22T12:51:22;19.50;;;3.33;;
78141;SDS011;67393;52.620;13.482;2023-02-22T12:54:00;25.90;;;4.70;;
78141;SDS011;67393;52.620;13.482;2023-02-22T12:56:40;15.25;;;3.40;;
78141;SDS011;67393;52.620;13.482;2023-02-22T12:59:30;12.90;;;3.70;;
78141;SDS011;67393;52.620;13.482;2023-02-22T13:02:11;20.83;;;2.70;;
78141;SDS011;67393;52.620;13.482;2023-02-22T13:04:39;26.02;;;4.40;;
78141;SDS011;67393;52.620;13.482;2023-02-22T13:07:10;17.35;;;2.92;;
78141;SDS011;67393;52.620;13.482;2023-02-22T13:13:05;17.98;;;3.35;;
78141;SDS011;67393;52.620;13.482;2023-02-22T13:21:10;19.40;;;3.95;;
78141;SDS011;67393;52.620;13.482;2023-02-22T13:23:42;11.98;;;2.92;;
78141;SDS011;67393;52.620;13.482;2023-02-22T13:26:21;16.50;;;3.55;;
78141;SDS011;67393;52.620;13.482;2023-02-22T13:28:58;17.23;;;3.70;;
78141;SDS011;67393;52.620;13.482;2023-02-22T13:34:46;15.50;;;3.38;;
78141;SDS011;67393;52.620;13.482;2023-02-22T13:38:15;20.70;;;3.08;;
78141;SDS011;67393;52.620;13.482;2023-02-22T13:43:36;19.35;;;4.05;;
78141;SDS011;67393;52.620;13.482;2023-02-22T13:46:24;22.70;;;2.95;;
78141;SDS011;67393;52.620;13.482;2023-02-22T13:56:41;14.68;;;2.60;;
78141;SDS011;67393;52.620;13.482;2023-02-22T13:59:29;20.92;;;3.72;;
78141;SDS011;67393;52.620;13.482;2023-02-22T14:02:02;14.82;;;3.13;;
78141;SDS011;67393;52.620;13.482;2023-02-22T14:09:48;17.00;;;3.05;;
78141;SDS011;67393;52.620;13.482;2023-02-22T14:15:16;11.32;;;2.58;;
78141;SDS011;67393;52.620;13.482;2023-02-22T14:17:58;14.13;;;3.58;;
78141;SDS011;67393;52.620;13.482;2023-02-22T14:20:31;17.90;;;3.20;;
78141;SDS011;67393;52.620;13.482;2023-02-22T14:25:48;19.27;;;3.03;;
78141;SDS011;67393;52.620;13.482;2023-02-22T14:34:08;17.23;;;4.22;;
78141;SDS011;67393;52.620;13.482;2023-02-22T14:36:38;15.18;;;4.20;;
78141;SDS011;67393;52.620;13.482;2023-02-22T14:39:14;14.15;;;2.67;;
78141;SDS011;67393;52.620;13.482;2023-02-22T14:41:52;16.38;;;3.42;;
78141;SDS011;67393;52.620;13.482;2023-02-22T14:46:53;22.45;;;3.47;;
78141;SDS011;67393;52.620;13.482;2023-02-22T14:49:23;20.65;;;3.50;;
78141;SDS011;67393;52.620;13.482;2023-02-22T14:51:59;18.45;;;3.28;;
78141;SDS011;67393;52.620;13.482;2023-02-22T14:54:38;12.70;;;2.28;;
78141;SDS011;67393;52.620;13.482;2023-02-22T14:57:22;8.68;;;2.30;;
78141;SDS011;67393;52.620;13.482;2023-02-22T15:02:38;9.68;;;3.50;;
78141;SDS011;67393;52.620;13.482;2023-02-22T15:05:05;24.50;;;2.75;;
78141;SDS011;67393;52.620;13.482;2023-02-22T15:07:32;16.13;;;3.20;;
78141;SDS011;67393;52.620;13.482;2023-02-22T15:10:13;13.85;;;2.28;;
78141;SDS011;67393;52.620;13.482;2023-02-22T15:12:53;10.30;;;2.80;;
78141;SDS011;67393;52.620;13.482;2023-02-22T15:15:27;13.60;;;2.45;;
78141;SDS011;67393;52.620;13.482;2023-02-22T15:17:55;10.98;;;2.58;;
78141;SDS011;67393;52.620;13.482;2023-02-22T15:20:23;12.43;;;2.58;;
78141;SDS011;67393;52.620;13.482;2023-02-22T15:22:50;16.63;;;3.65;;
78141;SDS011;67393;52.620;13.482;2023-02-22T15:25:24;16.63;;;3.58;;
78141;SDS011;67393;52.620;13.482;2023-02-22T15:27:52;16.25;;;3.67;;
78141;SDS011;67393;52.620;13.482;2023-02-22T15:30:26;20.33;;;3.83;;
78141;SDS011;67393;52.620;13.482;2023-02-22T15:32:54;18.15;;;4.32;;
78141;SDS011;67393;52.620;13.482;2023-02-22T15:35:29;20.92;;;3.42;;
78141;SDS011;67393;52.620;13.482;2023-02-22T15:38:01;14.35;;;3.55;;
78141;SDS011;67393;52.620;13.482;2023-02-22T15:40:29;10.63;;;3.05;;
78141;SDS011;67393;52.620;13.482;2023-02-22T15:42:55;14.70;;;4.55;;
78141;SDS011;67393;52.620;13.482;2023-02-22T15:45:23;20.00;;;3.28;;
78141;SDS011;67393;52.620;13.482;2023-02-22T15:47:51;17.02;;;3.47;;
78141;SDS011;67393;52.620;13.482;2023-02-22T15:50:28;12.85;;;3.25;;
78141;SDS011;67393;52.620;13.482;2023-02-22T15:53:06;18.23;;;3.15;;
78141;SDS011;67393;52.620;13.482;2023-02-22T15:55:54;15.07;;;3.50;;
78141;SDS011;67393;52.620;13.482;2023-02-22T15:58:23;13.35;;;3.30;;
78141;SDS011;67393;52.620;13.482;2023-02-22T16:01:04;18.45;;;3.42;;
78141;SDS011;67393;52.620;13.482;2023-02-22T16:03:37;15.18;;;3.28;;
78141;SDS011;67393;52.620;13.482;2023-02-22T16:06:07;12.65;;;3.22;;
78141;SDS011;67393;52.620;13.482;2023-02-22T16:08:57;26.45;;;4.68;;
78141;SDS011;67393;52.620;13.482;2023-02-22T16:11:34;9.13;;;2.45;;
78141;SDS011;67393;52.620;13.482;2023-02-22T16:14:04;15.27;;;3.25;;
78141;SDS011;67393;52.620;13.482;2023-02-22T16:16:47;17.85;;;3.72;;
78141;SDS011;67393;52.620;13.482;2023-02-22T16:19:26;17.85;;;3.47;;
78141;SDS011;67393;52.620;13.482;2023-02-22T16:21:58;15.35;;;3.38;;
78141;SDS011;67393;52.620;13.482;2023-02-22T16:24:27;10.77;;;2.67;;
78141;SDS011;67393;52.620;13.482;2023-02-22T16:29:37;11.15;;;2.45;;
78141;SDS011;67393;52.620;13.482;2023-02-22T16:32:04;11.02;;;2.92;;
78141;SDS011;67393;52.620;13.482;2023-02-22T16:34:30;9.98;;;3.22;;
78141;SDS011;67393;52.620;13.482;2023-02-22T16:36:56;11.40;;;2.95;;
78141;SDS011;67393;52.620;13.482;2023-02-22T16:39:24;8.88;;;2.75;;
78141;SDS011;67393;52.620;13.482;2023-02-22T16:41:53;14.00;;;3.75;;
78141;SDS011;67393;52.620;13.482;2023-02-22T16:44:22;11.65;;;2.92;;
78141;SDS011;67393;52.620;13.482;2023-02-22T16:46:48;14.98;;;3.13;;
78141;SDS011;67393;52.620;13.482;2023-02-22T16:49:15;24.08;;;3.67;;
78141;SDS011;67393;52.620;13.482;2023-02-22T16:51:48;18.92;;;2.92;;
78141;SDS011;67393;52.620;13.482;2023-02-22T16:54:22;9.85;;;2.75;;
78141;SDS011;67393;52.620;13.482;2023-02-22T16:56:53;9.27;;;2.78;;
78141;SDS011;67393;52.620;13.482;2023-02-22T16:59:21;14.98;;;3.30;;
78141;SDS011;67393;52.620;13.482;2023-02-22T17:01:48;13.70;;;3.10;;
78141;SDS011;67393;52.620;13.482;2023-02-22T17:04:15;12.15;;;3.58;;
78141;SDS011;67393;52.620;13.482;2023-02-22T17:06:47;16.05;;;3.70;;
78141;SDS011;67393;52.620;13.482;2023-02-22T17:09:13;23.80;;;4.00;;
78141;SDS011;67393;52.620;13.482;2023-02-22T17:11:40;7.82;;;2.47;;
78141;SDS011;67393;52.620;13.482;2023-02-22T17:14:08;9.73;;;3.20;;
78141;SDS011;67393;52.620;13.482;2023-02-22T17:16:38;13.95;;;3.20;;
78141;SDS011;67393;52.620;13.482;2023-02-22T17:19:07;15.95;;;3.30;;
78141;SDS011;67393;52.620;13.482;2023-02-22T17:21:40;9.68;;;2.67;;
78141;SDS011;67393;52.620;13.482;2023-02-22T17:24:08;9.57;;;2.65;;
78141;SDS011;67393;52.620;13.482;2023-02-22T17:26:37;13.18;;;3.33;;
78141;SDS011;67393;52.620;13.482;2023-02-22T17:29:03;8.13;;;2.72;;
78141;SDS011;67393;52.620;13.482;2023-02-22T17:31:30;14.18;;;4.25;;
78141;SDS011;67393;52.620;13.482;2023-02-22T17:33:58;14.98;;;3.17;;
78141;SDS011;67393;52.620;13.482;2023-02-22T17:36:29;21.77;;;3.25;;
78141;SDS011;67393;52.620;13.482;2023-02-22T17:38:57;14.80;;;3.22;;
78141;SDS011;67393;52.620;13.482;2023-02-22T17:43:51;8.43;;;3.05;;
78141;SDS011;67393;52.620;13.482;2023-02-22T17:46:17;15.93;;;2.97;;
78141;SDS011;67393;52.620;13.482;2023-02-22T17:48:44;12.98;;;3.40;;
78141;SDS011;67393;52.620;13.482;2023-02-22T17:51:11;9.13;;;3.60;;
78141;SDS011;67393;52.620;13.482;2023-02-22T17:53:37;15.82;;;2.72;;
78141;SDS011;67393;52.620;13.482;2023-02-22T17:56:07;13.45;;;3.22;;
78141;SDS011;67393;52.620;13.482;2023-02-22T17:58:35;7.95;;;3.65;;
78141;SDS011;67393;52.620;13.482;2023-02-22T18:01:02;11.13;;;2.88;;
78141;SDS011;67393;52.620;13.482;2023-02-22T18:03:29;7.97;;;2.53;;
78141;SDS011;67393;52.620;13.482;2023-02-22T18:05:57;14.43;;;3.58;;
78141;SDS011;67393;52.620;13.482;2023-02-22T18:08:26;9.80;;;2.88;;
78141;SDS011;67393;52.620;13.482;2023-02-22T18:10:54;13.60;;;3.85;;
78141;SDS011;67393;52.620;13.482;2023-02-22T18:13:21;12.20;;;3.22;;
78141;SDS011;67393;52.620;13.482;2023-02-22T18:15:48;17.50;;;3.53;;
78141;SDS011;67393;52.620;13.482;2023-02-22T18:18:15;19.30;;;4.25;;
78141;SDS011;67393;52.620;13.482;2023-02-22T18:20:42;12.50;;;3.00;;
78141;SDS011;67393;52.620;13.482;2023-02-22T18:23:14;18.50;;;3.78;;
78141;SDS011;67393;52.620;13.482;2023-02-22T18:25:46;13.25;;;3.63;;
78141;SDS011;67393;52.620;13.482;2023-02-22T18:28:34;9.98;;;3.35;;
78141;SDS011;67393;52.620;13.482;2023-02-22T18:31:04;9.77;;;3.70;;
78141;SDS011;67393;52.620;13.482;2023-02-22T18:33:32;8.48;;;3.65;;
78141;SDS011;67393;52.620;13.482;2023-02-22T18:35:58;11.45;;;3.05;;
78141;SDS011;67393;52.620;13.482;2023-02-22T18:38:24;16.55;;;3.88;;
78141;SDS011;67393;52.620;13.482;2023-02-22T18:40:58;17.85;;;4.65;;
78141;SDS011;67393;52.620;13.482;2023-02-22T18:43:25;8.20;;;3.20;;
78141;SDS011;67393;52.620;13.482;2023-02-22T18:45:52;28.60;;;4.63;;
78141;SDS011;67393;52.620;13.482;2023-02-22T18:48:19;10.63;;;3.58;;
78141;SDS011;67393;52.620;13.482;2023-02-22T18:50:46;16.17;;;4.18;;
78141;SDS011;67393;52.620;13.482;2023-02-22T18:53:12;15.43;;;4.22;;
78141;SDS011;67393;52.620;13.482;2023-02-22T18:55:39;15.65;;;4.68;;
78141;SDS011;67393;52.620;13.482;2023-02-22T18:58:05;15.18;;;3.80;;
78141;SDS011;67393;52.620;13.482;2023-02-22T19:00:32;10.13;;;3.58;;
78141;SDS011;67393;52.620;13.482;2023-02-22T19:02:59;12.55;;;4.30;;
78141;SDS011;67393;52.620;13.482;2023-02-22T19:05:26;20.58;;;3.72;;
78141;SDS011;67393;52.620;13.482;2023-02-22T19:07:52;9.00;;;3.30;;
78141;SDS011;67393;52.620;13.482;2023-02-22T19:10:18;16.55;;;3.35;;
78141;SDS011;67393;52.620;13.482;2023-02-22T19:12:45;14.13;;;3.85;;
78141;SDS011;67393;52.620;13.482;2023-02-22T19:15:11;14.85;;;4.60;;
78141;SDS011;67393;52.620;13.482;2023-02-22T19:17:37;11.80;;;4.07;;
78141;SDS011;67393;52.620;13.482;2023-02-22T19:20:06;12.73;;;4.20;;
78141;SDS011;67393;52.620;13.482;2023-02-22T19:22:32;8.93;;;4.00;;
78141;SDS011;67393;52.620;13.482;2023-02-22T19:24:59;11.15;;;4.28;;
78141;SDS011;67393;52.620;13.482;2023-02-22T19:27:26;13.88;;;4.25;;
78141;SDS011;67393;52.620;13.482;2023-02-22T19:29:53;17.85;;;4.40;;
78141;SDS011;67393;52.620;13.482;2023-02-22T19:32:19;14.43;;;5.28;;
78141;SDS011;67393;52.620;13.482;2023-02-22T19:34:46;12.95;;;4.65;;
78141;SDS011;67393;52.620;13.482;2023-02-22T19:37:12;13.60;;;3.47;;
78141;SDS011;67393;52.620;13.482;2023-02-22T19:39:38;13.57;;;3.47;;
78141;SDS011;67393;52.620;13.482;2023-02-22T19:42:05;18.58;;;4.47;;
78141;SDS011;67393;52.620;13.482;2023-02-22T19:44:31;16.50;;;4.32;;
78141;SDS011;67393;52.620;13.482;2023-02-22T19:46:57;12.98;;;3.88;;
78141;SDS011;67393;52.620;13.482;2023-02-22T19:49:24;9.68;;;3.22;;
78141;SDS011;67393;52.620;13.482;2023-02-22T19:51:51;15.57;;;4.28;;
78141;SDS011;67393;52.620;13.482;2023-02-22T19:54:17;12.38;;;4.13;;
78141;SDS011;67393;52.620;13.482;2023-02-22T19:56:44;13.15;;;5.18;;
78141;SDS011;67393;52.620;13.482;2023-02-22T19:59:10;26.10;;;5.93;;
78141;SDS011;67393;52.620;13.482;2023-02-22T20:01:36;24.15;;;6.32;;
78141;SDS011;67393;52.620;13.482;2023-02-22T20:04:04;21.95;;;5.43;;
